Time;durP1;ratioP1;P1;durP2;ratioP2;P2;SDS_P1;SDS_P2;PMS_P1;PMS_P2;Temp;Humidity;BMP_temperature;BMP_pressure;BME280_temperature;BME280_humidity;BME280_pressure;Samples;Min_cycle;Max_cycle;Signal;HPM_P1;HPM_P2
2022/05/05 04:14:15;;;;;;;4.70;1.48;;;17.00;54.10;;;;;;4845728;29;20209;-70
2022/05/05 04:16:43;;;;;;;6.28;1.58;;;17.20;54.30;;;;;;4844776;29;20136;-78
2022/05/05 04:19:08;;;;;;;5.50;1.45;;;17.30;54.20;;;;;;4846317;29;20053;-76
2022/05/05 04:21:34;;;;;;;6.53;1.92;;;17.40;54.10;;;;;;4845100;29;20045;-75
2022/05/05 04:24:00;;;;;;;3.65;1.30;;;17.50;54.10;;;;;;4845699;29;20042;-77
2022/05/05 04:26:28;;;;;;;3.20;1.27;;;17.70;54.00;;;;;;4845015;29;20061;-74
2022/05/05 04:28:56;;;;;;;7.30;1.77;;;17.70;54.00;;;;;;4845091;29;20102;-75
2022/05/05 04:31:25;;;;;;;5.60;1.77;;;17.80;54.10;;;;;;4841586;29;20114;-77
2022/05/05 04:33:51;;;;;;;3.30;1.45;;;17.90;54.10;;;;;;4845077;29;20054;-75
2022/05/05 04:36:17;;;;;;;5.00;1.98;;;18.00;54.00;;;;;;4845057;29;20102;-76
2022/05/05 04:38:43;;;;;;;4.20;1.60;;;18.10;53.70;;;;;;4845097;29;20058;-75
2022/05/05 04:41:09;;;;;;;7.05;1.60;;;18.10;53.60;;;;;;4847793;29;20145;-76
2022/05/05 04:43:35;;;;;;;4.60;1.10;;;18.20;53.70;;;;;;4844841;29;20124;-77
2022/05/05 04:46:01;;;;;;;2.85;1.38;;;18.20;53.70;;;;;;4844834;29;20522;-76
2022/05/05 04:48:26;;;;;;;4.93;1.45;;;18.20;53.70;;;;;;4844867;29;20082;-76
2022/05/05 04:50:52;;;;;;;5.85;1.45;;;18.20;53.70;;;;;;4844838;29;20078;-76
2022/05/05 04:53:18;;;;;;;5.05;1.67;;;18.20;53.70;;;;;;4844116;29;20095;-80
2022/05/05 04:55:44;;;;;;;6.85;2.38;;;18.20;53.80;;;;;;4844712;29;20078;-76
2022/05/05 04:58:09;;;;;;;3.78;1.50;;;18.20;53.80;;;;;;4844595;29;20443;-75
2022/05/05 05:00:36;;;;;;;3.15;1.30;;;18.20;53.90;;;;;;4844418;29;20050;-76
2022/05/05 05:03:02;;;;;;;5.32;2.05;;;18.10;53.80;;;;;;4844786;29;20072;-78
2022/05/05 05:05:28;;;;;;;4.38;2.05;;;18.10;53.90;;;;;;4844667;29;20130;-76
2022/05/05 05:07:54;;;;;;;5.88;1.90;;;17.70;53.20;;;;;;4844095;29;20124;-77
2022/05/05 05:10:19;;;;;;;6.40;1.77;;;17.80;54.30;;;;;;4843328;29;20133;-78
2022/05/05 05:12:45;;;;;;;4.03;1.33;;;17.80;54.40;;;;;;4847185;29;20109;-76
2022/05/05 05:15:11;;;;;;;6.07;1.60;;;17.80;54.40;;;;;;4862133;29;20092;-78
2022/05/05 05:17:37;;;;;;;2.78;1.73;;;17.90;54.40;;;;;;4862900;29;20530;-78
2022/05/05 05:20:03;;;;;;;6.97;1.45;;;17.90;54.30;;;;;;4860069;29;20124;-78
2022/05/05 05:22:30;;;;;;;5.13;1.45;;;17.90;54.30;;;;;;4862748;29;20124;-79
2022/05/05 05:24:55;;;;;;;6.18;1.85;;;18.00;54.40;;;;;;4862494;29;20443;-75
2022/05/05 05:27:21;;;;;;;4.05;1.75;;;18.00;54.40;;;;;;4862824;29;20128;-76
2022/05/05 05:29:47;;;;;;;8.20;1.40;;;18.00;54.40;;;;;;4871510;29;20057;-75
2022/05/05 05:32:13;;;;;;;4.22;1.42;;;18.00;54.40;;;;;;4867639;29;20076;-76
2022/05/05 05:34:38;;;;;;;4.78;2.45;;;18.00;54.40;;;;;;4869865;29;20114;-76
2022/05/05 05:37:04;;;;;;;4.50;1.88;;;18.00;54.30;;;;;;4863161;29;20061;-76
2022/05/05 05:39:31;;;;;;;5.10;1.63;;;17.80;54.10;;;;;;4862693;29;20046;-76
2022/05/05 05:41:57;;;;;;;5.55;1.85;;;17.80;54.50;;;;;;4862562;29;20056;-75
2022/05/05 05:44:22;;;;;;;7.15;1.98;;;17.90;54.60;;;;;;4862552;29;20054;-74
2022/05/05 05:46:48;;;;;;;7.03;1.70;;;17.90;54.80;;;;;;4846971;29;20194;-80
2022/05/05 05:49:14;;;;;;;9.25;2.15;;;17.90;55.00;;;;;;4845920;29;20061;-73
2022/05/05 05:51:41;;;;;;;9.57;1.75;;;17.90;55.30;;;;;;4862592;29;20466;-75
2022/05/05 05:54:07;;;;;;;10.73;2.47;;;18.00;55.50;;;;;;4860076;29;20042;-75
2022/05/05 05:56:33;;;;;;;8.48;2.70;;;18.00;55.60;;;;;;4862070;29;20378;-75
2022/05/05 05:59:01;;;;;;;11.60;2.67;;;18.00;55.70;;;;;;4862442;29;20045;-76
2022/05/05 06:04:15;;;;;;;14.57;3.13;;;17.90;53.20;;;;;;4862676;29;20057;-75
2022/05/05 06:06:41;;;;;;;11.88;2.35;;;17.90;56.00;;;;;;4862833;29;20080;-76
2022/05/05 06:09:07;;;;;;;16.95;3.45;;;17.90;56.40;;;;;;4862548;29;20056;-76
2022/05/05 06:11:33;;;;;;;18.20;3.20;;;17.90;56.80;;;;;;4862059;29;20409;-79
2022/05/05 06:13:58;;;;;;;11.98;2.25;;;17.90;56.90;;;;;;4845636;29;20153;-76
2022/05/05 06:16:24;;;;;;;22.92;4.18;;;17.80;57.10;;;;;;4862666;29;20132;-77
2022/05/05 06:18:50;;;;;;;21.42;3.33;;;17.70;56.50;;;;;;4862642;29;20378;-74
2022/05/05 06:21:15;;;;;;;19.60;2.72;;;17.70;57.60;;;;;;4846460;29;20045;-77
2022/05/05 06:23:41;;;;;;;19.83;3.08;;;17.70;58.10;;;;;;4862127;29;20453;-77
2022/05/05 06:26:07;;;;;;;18.88;3.88;;;17.70;58.00;;;;;;4862680;29;20041;-76
2022/05/05 06:28:33;;;;;;;20.83;3.75;;;17.70;57.90;;;;;;4866232;29;20076;-71
2022/05/05 06:31:00;;;;;;;16.95;4.30;;;17.80;57.20;;;;;;4850376;29;20057;-74
2022/05/05 06:33:26;;;;;;;18.20;4.35;;;17.80;56.50;;;;;;4865961;29;20059;-73
2022/05/05 06:35:52;;;;;;;15.68;3.92;;;17.80;56.00;;;;;;4866566;29;20124;-75
2022/05/05 06:38:17;;;;;;;17.55;4.70;;;17.80;55.60;;;;;;4866004;29;20451;-75
2022/05/05 06:40:44;;;;;;;22.83;4.68;;;17.80;55.50;;;;;;4866157;29;20072;-77
2022/05/05 06:43:10;;;;;;;18.15;4.15;;;17.80;55.40;;;;;;4849775;29;20068;-77
2022/05/05 06:45:35;;;;;;;21.17;4.43;;;17.70;55.70;;;;;;4866124;29;20042;-77
2022/05/05 06:48:01;;;;;;;22.02;4.68;;;17.70;56.10;;;;;;4849527;29;20082;-77
2022/05/05 06:50:28;;;;;;;16.60;4.32;;;17.60;55.70;;;;;;4849361;29;20128;-77
2022/05/05 06:52:54;;;;;;;18.83;3.95;;;17.60;55.60;;;;;;4865641;29;20125;-77
2022/05/05 06:55:20;;;;;;;30.25;5.30;;;17.60;56.00;;;;;;4866302;29;20534;-77
2022/05/05 06:57:46;;;;;;;22.08;4.65;;;17.60;56.60;;;;;;4866374;29;20202;-78
2022/05/05 07:00:13;;;;;;;32.78;5.20;;;17.50;57.10;;;;;;4865506;29;20371;-76
2022/05/05 07:02:39;;;;;;;47.33;6.53;;;17.60;56.60;;;;;;4848417;29;20054;-77
2022/05/05 07:05:23;;;;;;;32.20;4.88;;;17.50;56.70;;;;;;4865375;29;20048;-78
2022/05/05 07:07:49;;;;;;;;;;;17.50;57.00;;;;;;4866021;29;20156;-77
2022/05/05 07:12:59;;;;;;;31.83;5.18;;;17.60;57.40;;;;;;4865022;29;20057;-76
2022/05/05 07:15:25;;;;;;;28.70;5.20;;;17.70;57.60;;;;;;4865122;29;20534;-79
2022/05/05 07:17:51;;;;;;;37.28;5.20;;;17.70;58.70;;;;;;4849151;29;20061;-78
2022/05/05 07:20:17;;;;;;;33.38;4.80;;;17.70;58.10;;;;;;4860629;29;20042;-75
2022/05/05 07:22:43;;;;;;;22.88;5.32;;;17.70;57.60;;;;;;4865398;29;20459;-75
2022/05/05 07:25:09;;;;;;;28.83;5.32;;;17.80;57.20;;;;;;4864696;29;20117;-76
2022/05/05 07:27:34;;;;;;;32.50;5.07;;;17.60;56.10;;;;;;4865337;29;20060;-75
2022/05/05 07:30:01;;;;;;;34.08;5.18;;;17.60;56.90;;;;;;4833538;29;20359;-77
2022/05/05 07:32:26;;;;;;;27.95;4.60;;;17.70;57.30;;;;;;4846470;29;20057;-78
2022/05/05 07:34:52;;;;;;;23.88;5.10;;;17.70;57.20;;;;;;4830429;29;20053;-78
2022/05/05 07:37:18;;;;;;;14.15;3.95;;;17.70;57.00;;;;;;4846640;29;20053;-75
2022/05/05 07:39:43;;;;;;;19.80;4.55;;;17.70;56.80;;;;;;4857066;29;20463;-75
2022/05/05 07:42:12;;;;;;;20.15;4.72;;;17.70;56.60;;;;;;4853708;29;20525;-75
2022/05/05 07:44:38;;;;;;;17.23;4.55;;;17.70;56.30;;;;;;4849021;29;20138;-76
2022/05/05 07:47:04;;;;;;;19.42;4.72;;;17.80;56.20;;;;;;4857505;29;20049;-75
2022/05/05 07:49:30;;;;;;;14.02;3.75;;;17.70;55.70;;;;;;4846740;29;20053;-73
2022/05/05 07:51:55;;;;;;;9.38;3.92;;;17.70;55.50;;;;;;4864855;29;20415;-75
2022/05/05 07:54:42;;;;;;;17.95;4.40;;;17.60;55.60;;;;;;4864474;29;20045;-75
2022/05/05 07:57:11;;;;;;;18.48;4.00;;;17.50;55.20;;;;;;4865153;29;20143;-76
2022/05/05 07:59:38;;;;;;;20.70;4.40;;;17.60;57.00;;;;;;4861212;29;20053;-75
2022/05/05 08:02:08;;;;;;;17.65;3.58;;;17.60;57.60;;;;;;4836402;29;20048;-76
2022/05/05 08:04:35;;;;;;;19.85;4.20;;;17.60;57.40;;;;;;4847973;29;20064;-82
2022/05/05 08:07:01;;;;;;;16.38;3.28;;;17.60;57.60;;;;;;4864654;29;20076;-76
2022/05/05 08:09:27;;;;;;;21.63;4.35;;;17.70;57.60;;;;;;4864562;29;20124;-76
2022/05/05 08:11:53;;;;;;;24.10;3.78;;;17.60;56.30;;;;;;4859302;29;20355;-76
2022/05/05 08:14:18;;;;;;;20.75;4.60;;;17.60;57.80;;;;;;4859951;29;20061;-76
2022/05/05 08:16:44;;;;;;;16.60;3.25;;;17.60;58.20;;;;;;4864641;29;20057;-75
2022/05/05 08:19:10;;;;;;;17.55;4.07;;;17.60;58.30;;;;;;4864386;29;20050;-75
2022/05/05 08:21:35;;;;;;;20.13;3.92;;;17.60;58.40;;;;;;4864066;29;20076;-76
2022/05/05 08:29:33;;;;;;;17.30;3.60;;;17.60;58.90;;;;;;4864176;29;20463;-75
2022/05/05 08:31:58;;;;;;;23.15;3.47;;;17.70;58.60;;;;;;4864264;29;20052;-77
2022/05/05 08:34:24;;;;;;;13.63;4.35;;;17.70;58.50;;;;;;4864282;29;20519;-75
2022/05/05 08:36:51;;;;;;;21.38;3.70;;;17.70;58.30;;;;;;4863861;29;20058;-76
2022/05/05 08:39:17;;;;;;;16.92;3.22;;;17.70;58.30;;;;;;4848234;29;20124;-76
2022/05/05 08:41:43;;;;;;;13.57;3.38;;;17.50;56.90;;;;;;4863274;29;20422;-71
2022/05/05 08:44:09;;;;;;;19.40;4.43;;;17.50;57.30;;;;;;4863981;29;20068;-72
2022/05/05 08:46:36;;;;;;;19.90;3.85;;;17.50;58.30;;;;;;4864078;29;20053;-75
2022/05/05 08:49:05;;;;;;;21.95;4.65;;;17.50;58.30;;;;;;4847442;29;20061;-77
2022/05/05 08:51:46;;;;;;;18.42;4.72;;;17.60;57.50;;;;;;4860356;29;20494;-75
2022/05/05 08:54:16;;;;;;;15.23;3.65;;;17.60;56.60;;;;;;4863461;29;20038;-79
2022/05/05 08:56:48;;;;;;;12.73;3.50;;;17.60;56.10;;;;;;4863652;29;20045;-79
2022/05/05 08:59:15;;;;;;;9.93;3.00;;;17.70;56.30;;;;;;4847425;29;20069;-80
2022/05/05 09:01:41;;;;;;;11.32;3.75;;;17.60;56.00;;;;;;4847012;29;20057;-78
2022/05/05 09:04:07;;;;;;;11.98;3.30;;;17.60;56.40;;;;;;4863357;29;20428;-78
2022/05/05 09:06:53;;;;;;;13.10;3.30;;;17.60;55.70;;;;;;4863396;29;20049;-79
2022/05/05 09:09:22;;;;;;;11.13;2.50;;;17.70;55.50;;;;;;4863442;29;20474;-80
2022/05/05 09:12:06;;;;;;;10.38;3.03;;;17.60;55.60;;;;;;4847338;29;20117;-79
2022/05/05 09:14:53;;;;;;;12.50;3.30;;;17.60;55.00;;;;;;4859790;29;20061;-78
2022/05/05 09:17:27;;;;;;;11.65;3.03;;;17.60;54.80;;;;;;4863069;29;20146;-78
2022/05/05 09:19:56;;;;;;;7.93;2.58;;;17.70;55.10;;;;;;4863187;29;20129;-79
2022/05/05 09:22:27;;;;;;;7.50;2.67;;;17.70;55.30;;;;;;4863012;29;20081;-79
2022/05/05 09:24:57;;;;;;;7.10;2.30;;;17.70;55.50;;;;;;4863105;29;20109;-79
2022/05/05 09:27:33;;;;;;;10.57;2.65;;;17.70;55.60;;;;;;4862934;29;20049;-78
2022/05/05 09:30:11;;;;;;;8.10;2.50;;;17.70;55.20;;;;;;4862151;29;20478;-75
2022/05/05 09:32:45;;;;;;;8.15;2.85;;;17.70;55.30;;;;;;4862755;29;20153;-76
2022/05/05 09:35:13;;;;;;;10.68;2.92;;;17.80;55.10;;;;;;4861769;29;20121;-74
2022/05/05 09:37:54;;;;;;;15.13;3.15;;;17.80;55.10;;;;;;4862777;29;20363;-75
2022/05/05 09:40:21;;;;;;;8.80;2.22;;;17.80;54.50;;;;;;4862742;29;20396;-75
2022/05/05 09:42:49;;;;;;;8.15;2.47;;;17.80;54.60;;;;;;4863323;29;20054;-75
2022/05/05 09:45:55;;;;;;;7.22;2.88;;;17.80;54.60;;;;;;4862987;29;20045;-77
2022/05/05 09:48:43;;;;;;;8.18;2.35;;;17.80;54.20;;;;;;4862980;29;20116;-76
2022/05/05 09:51:29;;;;;;;;;;;;;;;;;;;;;
2022/05/05 09:59:46;;;;;;;8.25;2.30;;;17.90;54.80;;;;;;4849765;29;20053;-76
2022/05/05 10:02:27;;;;;;;9.18;3.10;;;17.90;54.90;;;;;;4861828;29;20064;-75
2022/05/05 10:04:57;;;;;;;13.32;2.85;;;17.90;55.00;;;;;;4862636;29;20089;-75
2022/05/05 10:07:23;;;;;;;12.30;2.67;;;17.90;55.30;;;;;;4862516;29;20494;-75
2022/05/05 10:09:49;;;;;;;7.63;2.58;;;17.90;55.50;;;;;;4862330;29;20049;-74
2022/05/05 10:12:18;;;;;;;17.30;3.17;;;17.90;55.40;;;;;;4862933;29;20410;-76
2022/05/05 10:14:44;;;;;;;11.00;3.80;;;17.90;55.60;;;;;;4861809;29;20494;-75
2022/05/05 10:17:11;;;;;;;22.70;3.90;;;17.90;55.50;;;;;;4863009;29;20042;-79
2022/05/05 10:19:37;;;;;;;14.02;3.85;;;17.90;55.70;;;;;;4860767;29;20100;-76
2022/05/05 10:22:11;;;;;;;20.98;5.03;;;17.90;56.10;;;;;;4862627;29;20041;-77
2022/05/05 10:24:43;;;;;;;19.33;4.53;;;18.00;55.70;;;;;;4862750;29;20053;-74
2022/05/05 10:27:10;;;;;;;17.83;4.18;;;17.90;55.40;;;;;;4862395;29;20103;-74
2022/05/05 10:29:42;;;;;;;16.85;4.47;;;17.80;56.10;;;;;;4845599;29;20082;-78
2022/05/05 10:32:22;;;;;;;24.42;4.50;;;17.80;56.50;;;;;;4843624;29;20050;-77
2022/05/05 10:35:11;;;;;;;19.77;4.68;;;17.80;55.80;;;;;;4828118;29;20137;-77
2022/05/05 10:37:38;;;;;;;13.55;4.38;;;17.70;56.30;;;;;;4844244;29;20081;-77
2022/05/05 10:40:06;;;;;;;16.65;4.55;;;17.70;56.50;;;;;;4862213;29;20126;-77
2022/05/05 10:42:40;;;;;;;14.60;4.15;;;17.70;56.90;;;;;;4845740;29;20065;-78
2022/05/05 10:45:27;;;;;;;13.23;4.47;;;17.70;57.00;;;;;;4862330;29;20050;-77
2022/05/05 10:47:58;;;;;;;14.15;4.15;;;17.60;56.70;;;;;;4859944;29;20209;-79
2022/05/05 10:50:42;;;;;;;18.35;4.15;;;17.60;57.80;;;;;;4813354;29;20054;-78
2022/05/05 10:53:24;;;;;;;13.77;3.78;;;17.60;57.30;;;;;;4843976;29;20197;-78
2022/05/05 10:55:50;;;;;;;15.85;5.25;;;17.70;57.60;;;;;;4812897;29;20260;-75
2022/05/05 10:58:53;;;;;;;12.82;5.22;;;17.80;57.50;;;;;;4848344;29;20129;-77
2022/05/05 11:01:19;;;;;;;17.65;5.40;;;17.80;57.10;;;;;;4862277;29;20152;-75
2022/05/05 11:04:30;;;;;;;23.45;6.35;;;17.90;57.20;;;;;;4861910;29;20494;-77
2022/05/05 11:07:28;;;;;;;13.68;5.80;;;17.90;57.10;;;;;;4862063;29;20078;-76
2022/05/05 11:09:53;;;;;;;12.48;5.28;;;17.90;57.30;;;;;;4844679;29;20391;-78
2022/05/05 11:12:24;;;;;;;14.02;5.60;;;17.90;57.30;;;;;;4843687;29;20089;-79
2022/05/05 11:23:31;;;;;;;11.55;5.75;;;18.00;57.20;;;;;;4829947;29;20063;-78
2022/05/05 11:25:57;;;;;;;10.70;5.30;;;18.00;56.90;;;;;;4846451;29;20050;-78
2022/05/05 11:28:26;;;;;;;11.77;5.57;;;18.00;56.80;;;;;;4846357;29;20053;-81
2022/05/05 11:30:53;;;;;;;11.25;5.72;;;18.00;56.80;;;;;;4846904;29;20479;-79
2022/05/05 11:33:20;;;;;;;11.63;5.63;;;18.00;57.00;;;;;;4846916;29;20045;-79
2022/05/05 11:36:01;;;;;;;10.15;5.95;;;17.90;57.10;;;;;;4846680;29;20075;-77
2022/05/05 11:38:28;;;;;;;16.45;7.45;;;18.00;57.60;;;;;;4846091;29;20463;-77
2022/05/05 11:41:04;;;;;;;14.57;7.28;;;18.00;57.60;;;;;;4846234;29;20045;-74
2022/05/05 11:46:16;;;;;;;17.58;6.57;;;18.00;58.50;;;;;;4845889;29;20054;-72
2022/05/05 11:48:43;;;;;;;18.60;7.22;;;18.00;59.30;;;;;;4846242;29;20083;-75
2022/05/05 11:51:10;;;;;;;17.67;7.38;;;18.10;59.30;;;;;;4830403;29;20512;-77
2022/05/05 11:53:36;;;;;;;14.35;7.47;;;18.10;59.10;;;;;;4846538;29;20094;-74
2022/05/05 11:56:03;;;;;;;15.07;7.10;;;18.10;59.90;;;;;;4846428;29;20089;-80
2022/05/05 12:04:05;;;;;;;13.63;7.43;;;18.10;61.30;;;;;;4837538;29;20057;-80
2022/05/05 12:06:32;;;;;;;15.32;8.18;;;18.10;61.30;;;;;;4846200;29;20053;-81
2022/05/05 12:08:58;;;;;;;14.05;7.78;;;18.10;61.50;;;;;;4844945;29;20057;-77
2022/05/05 12:11:30;;;;;;;18.50;8.18;;;18.10;61.60;;;;;;4845769;29;20137;-76
2022/05/05 12:14:06;;;;;;;12.35;7.80;;;18.10;61.60;;;;;;4856438;29;20053;-82
2022/05/05 12:16:37;;;;;;;16.17;8.35;;;18.10;61.20;;;;;;4847170;29;20057;-77
2022/05/05 12:19:15;;;;;;;16.90;8.50;;;18.10;60.90;;;;;;4846805;29;20050;-76
2022/05/05 12:21:57;;;;;;;14.02;8.57;;;18.10;60.90;;;;;;4862584;29;20067;-76
2022/05/05 12:24:24;;;;;;;14.18;8.07;;;18.10;60.70;;;;;;4863175;29;20375;-77
2022/05/05 12:27:11;;;;;;;13.93;8.85;;;18.10;60.30;;;;;;4862936;29;20131;-76
2022/05/05 12:29:41;;;;;;;15.85;8.52;;;18.10;60.60;;;;;;4844585;29;20093;-74
2022/05/05 12:32:12;;;;;;;13.70;8.35;;;18.10;60.50;;;;;;4850659;29;20045;-75
2022/05/05 12:34:39;;;;;;;11.75;7.57;;;18.10;60.20;;;;;;4863767;29;20057;-76
2022/05/05 12:37:11;;;;;;;12.75;7.85;;;18.10;59.80;;;;;;4862777;29;20454;-73
2022/05/05 12:39:57;;;;;;;12.73;8.30;;;18.10;60.20;;;;;;4862918;29;20045;-74
2022/05/05 12:42:43;;;;;;;14.10;8.55;;;18.10;60.20;;;;;;4862549;29;20056;-74
2022/05/05 12:45:13;;;;;;;13.90;8.00;;;18.10;60.30;;;;;;4862393;29;20057;-74
2022/05/05 12:47:41;;;;;;;14.10;7.93;;;18.10;60.50;;;;;;4862799;29;20053;-74
2022/05/05 12:50:35;;;;;;;16.13;8.27;;;18.10;60.50;;;;;;4862975;29;20053;-74
2022/05/05 13:01:30;;;;;;;13.63;8.45;;;18.10;60.40;;;;;;4862668;29;20057;-76
2022/05/05 13:03:58;;;;;;;14.82;8.93;;;18.10;59.90;;;;;;4862830;29;20461;-76
2022/05/05 13:06:25;;;;;;;16.30;8.98;;;18.10;60.00;;;;;;4863044;29;20133;-77
2022/05/05 13:08:52;;;;;;;13.13;8.05;;;18.10;59.90;;;;;;4862750;29;20053;-76
2022/05/05 13:11:18;;;;;;;13.43;8.02;;;18.10;60.00;;;;;;4846700;29;20436;-77
2022/05/05 13:13:45;;;;;;;10.40;7.80;;;18.10;60.10;;;;;;4824642;29;1123334;-77
2022/05/05 13:16:11;;;;;;;11.52;8.52;;;18.10;60.10;;;;;;4863475;29;20060;-76
2022/05/05 13:18:37;;;;;;;12.13;7.95;;;18.10;59.80;;;;;;4863353;29;20057;-76
2022/05/05 13:21:03;;;;;;;13.38;8.50;;;18.10;60.00;;;;;;4863179;29;20049;-76
2022/05/05 13:23:28;;;;;;;14.15;9.30;;;18.00;60.00;;;;;;4861752;29;20045;-76
2022/05/05 13:25:54;;;;;;;14.02;8.75;;;18.10;59.50;;;;;;4863338;29;20054;-76
2022/05/05 13:28:20;;;;;;;13.30;8.45;;;18.10;59.70;;;;;;4863643;29;20057;-76
2022/05/05 13:30:46;;;;;;;18.95;8.82;;;18.10;59.90;;;;;;4846877;29;20065;-76
2022/05/05 13:33:12;;;;;;;13.38;8.80;;;18.10;60.10;;;;;;4851283;29;20046;-76
2022/05/05 13:35:38;;;;;;;11.98;8.32;;;18.00;60.10;;;;;;4844889;29;20050;-76
2022/05/05 13:38:04;;;;;;;13.95;10.43;;;18.00;60.20;;;;;;4844184;29;20451;-76
2022/05/05 13:40:29;;;;;;;12.57;8.43;;;18.00;60.00;;;;;;4844651;29;20058;-76
2022/05/05 13:42:55;;;;;;;14.65;8.88;;;18.00;60.20;;;;;;4853166;29;20092;-75
2022/05/05 13:45:22;;;;;;;13.90;10.05;;;18.00;60.20;;;;;;4862612;29;20041;-77
2022/05/05 13:47:48;;;;;;;12.60;9.18;;;18.00;60.10;;;;;;4862843;29;20069;-77
2022/05/05 13:50:14;;;;;;;16.83;10.05;;;18.00;60.10;;;;;;4863159;29;20061;-75
2022/05/05 13:52:49;;;;;;;15.93;10.02;;;18.10;60.30;;;;;;4855780;29;20058;-75
2022/05/05 13:55:14;;;;;;;13.30;10.70;;;18.00;60.30;;;;;;4844451;29;20061;-76
2022/05/05 13:57:41;;;;;;;16.95;12.13;;;18.00;60.20;;;;;;4844542;29;20403;-75
2022/05/05 14:00:08;;;;;;;17.02;11.50;;;18.10;60.20;;;;;;4843972;29;20522;-75
2022/05/05 14:02:34;;;;;;;17.02;12.55;;;18.10;60.20;;;;;;4855443;29;20064;-76
2022/05/05 14:05:00;;;;;;;17.08;12.05;;;18.00;60.20;;;;;;4863003;29;20455;-75
2022/05/05 14:12:55;;;;;;;19.63;13.13;;;18.10;60.20;;;;;;4852031;29;20065;-76
2022/05/05 14:15:22;;;;;;;18.55;11.70;;;18.10;60.40;;;;;;4862309;29;20137;-76
2022/05/05 14:17:48;;;;;;;17.73;12.27;;;18.10;60.70;;;;;;4862662;29;20053;-76
2022/05/05 14:20:13;;;;;;;18.50;12.40;;;18.10;60.70;;;;;;4846434;29;20057;-74
2022/05/05 14:22:42;;;;;;;23.08;12.15;;;18.10;60.60;;;;;;4862489;29;20074;-75
2022/05/05 14:25:10;;;;;;;22.45;13.30;;;18.10;60.40;;;;;;4862335;29;20064;-77
2022/05/05 14:27:37;;;;;;;22.17;14.27;;;18.10;60.70;;;;;;4862348;29;20061;-77
2022/05/05 14:30:04;;;;;;;18.73;12.50;;;18.10;60.50;;;;;;4862668;29;20046;-78
2022/05/05 14:32:30;;;;;;;18.05;13.07;;;18.10;60.30;;;;;;4861860;29;20476;-77
2022/05/05 14:34:56;;;;;;;19.45;12.73;;;18.10;60.50;;;;;;4862754;29;20037;-77
2022/05/05 14:37:21;;;;;;;24.38;13.05;;;18.10;60.60;;;;;;4830965;29;20408;-77
2022/05/05 14:39:47;;;;;;;17.55;12.35;;;18.10;60.40;;;;;;4845991;29;20053;-76
2022/05/05 14:42:13;;;;;;;19.08;12.10;;;18.10;60.30;;;;;;4861519;29;20046;-76
2022/05/05 14:44:39;;;;;;;26.55;12.63;;;18.10;60.10;;;;;;4861440;29;20064;-77
2022/05/05 14:47:06;;;;;;;19.08;11.70;;;18.10;60.40;;;;;;4862060;29;20068;-74
2022/05/05 14:49:32;;;;;;;31.42;12.05;;;18.20;60.70;;;;;;4866148;29;20107;-74
2022/05/05 14:51:57;;;;;;;24.67;12.55;;;18.20;60.90;;;;;;4865864;29;20069;-81
2022/05/05 14:54:23;;;;;;;22.90;11.38;;;18.20;61.20;;;;;;4850263;29;20535;-80
2022/05/05 14:56:49;;;;;;;22.73;11.48;;;18.20;60.90;;;;;;4864827;29;20050;-76
2022/05/05 14:59:14;;;;;;;21.13;10.57;;;18.30;61.30;;;;;;4879443;29;20406;-78
2022/05/05 15:01:40;;;;;;;22.63;9.80;;;18.30;60.70;;;;;;4884197;29;20355;-78
2022/05/05 15:04:06;;;;;;;19.70;10.68;;;18.40;60.70;;;;;;4867254;29;20463;-77
2022/05/05 15:06:32;;;;;;;27.23;9.90;;;18.60;60.60;;;;;;4866865;29;20049;-80
2022/05/05 15:08:57;;;;;;;21.10;8.95;;;18.70;60.60;;;;;;4883103;29;20116;-78
2022/05/05 15:11:23;;;;;;;18.95;9.60;;;18.80;61.10;;;;;;4865455;29;20381;-80
2022/05/05 15:13:49;;;;;;;23.88;10.52;;;18.90;60.10;;;;;;4856253;29;20475;-77
2022/05/05 15:16:16;;;;;;;17.15;10.07;;;19.00;59.70;;;;;;4879317;29;20455;-73
2022/05/05 15:18:44;;;;;;;19.73;11.35;;;19.10;59.30;;;;;;4884182;29;20060;-79
2022/05/05 15:21:10;;;;;;;21.35;12.38;;;19.20;59.20;;;;;;4883827;29;20156;-76
2022/05/05 15:23:36;;;;;;;22.27;13.25;;;19.30;60.80;;;;;;4886264;29;20064;-78
2022/05/05 15:26:04;;;;;;;21.75;11.50;;;19.40;60.60;;;;;;4879820;29;20061;-75
2022/05/05 15:28:31;;;;;;;25.55;14.38;;;19.40;59.10;;;;;;4846794;29;20050;-74
2022/05/05 15:31:02;;;;;;;24.02;15.10;;;19.40;60.00;;;;;;4861190;29;20049;-80
2022/05/05 15:33:31;;;;;;;21.23;13.40;;;19.50;60.40;;;;;;4846896;29;20089;-79
2022/05/05 15:35:59;;;;;;;22.40;13.13;;;19.50;61.00;;;;;;4847898;29;20097;-79
2022/05/05 15:38:28;;;;;;;21.08;12.32;;;19.50;59.50;;;;;;4866866;29;20069;-78
2022/05/05 15:40:56;;;;;;;20.67;12.80;;;19.50;60.10;;;;;;4864149;29;20182;-79
2022/05/05 15:43:22;;;;;;;17.50;13.48;;;19.50;59.10;;;;;;4864375;29;20046;-78
2022/05/05 15:45:49;;;;;;;19.95;12.65;;;19.50;60.30;;;;;;4863851;29;20053;-79
2022/05/05 15:48:15;;;;;;;20.27;12.82;;;19.50;59.30;;;;;;4859399;29;20185;-79
2022/05/05 15:50:41;;;;;;;20.33;12.75;;;19.50;58.50;;;;;;4864083;29;20064;-78
2022/05/05 15:53:07;;;;;;;21.02;12.50;;;19.50;58.70;;;;;;4880230;29;20474;-80
2022/05/05 15:55:33;;;;;;;19.58;13.25;;;19.50;58.60;;;;;;4875051;29;20125;-70
2022/05/05 15:57:59;;;;;;;18.02;12.00;;;19.50;58.30;;;;;;4864622;29;20371;-78
2022/05/05 16:00:26;;;;;;;18.15;11.50;;;19.50;58.00;;;;;;4862878;29;20059;-77
2022/05/05 16:02:53;;;;;;;19.33;11.18;;;19.50;58.50;;;;;;4866322;29;20061;-77
2022/05/05 16:05:20;;;;;;;20.00;11.57;;;19.50;59.60;;;;;;4864459;29;20121;-76
2022/05/05 16:07:49;;;;;;;22.00;10.65;;;19.50;59.90;;;;;;4864510;29;20092;-77
2022/05/05 16:10:15;;;;;;;20.63;10.75;;;19.50;60.20;;;;;;4864387;29;20053;-76
2022/05/05 16:12:52;;;;;;;19.92;10.35;;;19.50;60.30;;;;;;4862673;29;20053;-77
2022/05/05 16:15:18;;;;;;;22.40;9.10;;;19.50;60.50;;;;;;4865152;29;20176;-76
2022/05/05 16:17:45;;;;;;;18.08;8.65;;;19.50;60.60;;;;;;4864775;29;20053;-76
2022/05/05 16:20:20;;;;;;;24.70;9.13;;;19.60;60.90;;;;;;4864211;29;20085;-77
2022/05/05 16:22:49;;;;;;;25.02;8.82;;;19.60;61.40;;;;;;4836166;29;20046;-78
2022/05/05 16:30:53;;;;;;;25.83;7.82;;;19.60;61.80;;;;;;4845475;29;20053;-76
2022/05/05 16:33:19;;;;;;;27.77;9.38;;;19.60;62.20;;;;;;4830066;29;20129;-77
2022/05/05 16:35:45;;;;;;;22.13;10.30;;;19.60;61.80;;;;;;4845643;29;20121;-78
2022/05/05 16:38:19;;;;;;;23.13;11.55;;;19.60;61.10;;;;;;4853401;29;20137;-77
2022/05/05 16:40:44;;;;;;;21.17;12.35;;;19.70;61.10;;;;;;4846449;29;20096;-77
2022/05/05 16:43:13;;;;;;;20.30;12.05;;;19.70;60.30;;;;;;4845177;29;20081;-78
2022/05/05 16:45:44;;;;;;;23.27;11.40;;;19.60;59.80;;;;;;4828994;29;20100;-77
2022/05/05 16:48:24;;;;;;;18.40;9.90;;;19.60;60.00;;;;;;4842818;29;20054;-78
2022/05/05 16:50:51;;;;;;;24.70;10.20;;;19.60;60.30;;;;;;4836143;29;20471;-76
2022/05/05 16:53:17;;;;;;;21.20;11.23;;;19.60;60.50;;;;;;4844852;29;20444;-78
2022/05/05 16:55:43;;;;;;;28.38;12.60;;;19.60;60.70;;;;;;4844814;29;20050;-77
2022/05/05 16:58:08;;;;;;;29.38;13.00;;;19.60;60.80;;;;;;4845011;29;20057;-77
2022/05/05 17:00:39;;;;;;;27.20;12.70;;;19.60;60.80;;;;;;4844767;29;20065;-78
2022/05/05 17:03:05;;;;;;;26.40;14.82;;;19.60;61.00;;;;;;4851980;29;20054;-79
2022/05/05 17:05:31;;;;;;;32.35;11.90;;;19.50;59.30;;;;;;4846574;29;20072;-77
2022/05/05 17:07:57;;;;;;;29.20;11.73;;;19.50;60.80;;;;;;4851408;29;20041;-76
2022/05/05 17:10:24;;;;;;;25.80;11.00;;;19.50;61.30;;;;;;4863750;29;20117;-77
2022/05/05 17:12:58;;;;;;;29.10;10.65;;;19.50;61.50;;;;;;4856872;29;20072;-77
2022/05/05 17:15:24;;;;;;;32.35;10.55;;;19.50;61.60;;;;;;4863508;29;20057;-77
2022/05/05 17:17:51;;;;;;;32.38;11.30;;;19.50;61.80;;;;;;4864163;29;20133;-80
2022/05/05 17:20:18;;;;;;;33.83;10.90;;;19.50;62.00;;;;;;4831890;29;20065;-78
2022/05/05 17:22:44;;;;;;;31.05;10.82;;;19.50;62.20;;;;;;4831179;29;20128;-78
2022/05/05 17:25:10;;;;;;;30.65;13.55;;;19.50;62.20;;;;;;4863210;29;20217;-74
2022/05/05 17:27:36;;;;;;;31.23;10.18;;;19.50;61.40;;;;;;4846542;29;20514;-78
2022/05/05 17:30:03;;;;;;;29.45;10.55;;;19.50;62.00;;;;;;4862573;29;20136;-77
2022/05/05 17:32:29;;;;;;;39.58;12.55;;;19.50;61.90;;;;;;4863488;29;20056;-78
2022/05/05 17:34:55;;;;;;;27.83;10.05;;;19.50;61.90;;;;;;4881405;29;20053;-76
2022/05/05 17:37:20;;;;;;;24.15;9.93;;;19.50;62.20;;;;;;4867785;29;20053;-77
2022/05/05 17:39:46;;;;;;;24.80;9.40;;;19.50;62.20;;;;;;4847048;29;20118;-78
2022/05/05 17:42:12;;;;;;;26.10;9.40;;;19.50;62.20;;;;;;4862705;29;20467;-77
2022/05/05 17:52:51;;;;;;;23.20;8.57;;;19.40;62.00;;;;;;4862337;29;20053;-76
2022/05/05 17:55:17;;;;;;;25.30;8.90;;;19.40;62.30;;;;;;4863360;29;20057;-77
2022/05/05 17:57:44;;;;;;;19.55;8.57;;;19.40;62.40;;;;;;4862480;29;20431;-78
2022/05/05 18:00:10;;;;;;;21.80;7.85;;;19.40;62.20;;;;;;4861618;29;20057;-76